JLY1547 SBSL-SNCW
Flight info
| Callsign | JLY1547 |
|---|---|
| Flight time | 0h 17m |
| Altitude | 3500 |
| Route | SL049 |
| Aircraft | C208/L-SDFGR/C |
Departure
| Time | 2026-05-03 23:34 |
|---|---|
| Airport | Marechal Cunha Machado International Airport (SBSL) |
Arrival
| Time | 2026-05-03 23:51 |
|---|---|
| Airport | Alcântara Space Center Airport (SNCW) |
| Time | Latitude | Longitude | Altitude | Speed | Heading |
|---|---|---|---|---|---|
| 2026-05-03 23:20 | -2.58272 | -44.23457 | 162 ft | 0 kts | 221° |
| 2026-05-03 23:29 | -2.58275 | -44.23460 | 162 ft | 4 kts | 219° |
| 2026-05-03 23:29 | -2.58337 | -44.23475 | 162 ft | 16 kts | 184° |
| 2026-05-03 23:30 | -2.58440 | -44.23443 | 161 ft | 14 kts | 134° |
| 2026-05-03 23:30 | -2.58485 | -44.23393 | 161 ft | 9 kts | 147° |
| 2026-05-03 23:30 | -2.58553 | -44.23416 | 162 ft | 15 kts | 218° |
| 2026-05-03 23:30 | -2.58655 | -44.23499 | 163 ft | 23 kts | 220° |
| 2026-05-03 23:31 | -2.58795 | -44.23611 | 161 ft | 27 kts | 219° |
| 2026-05-03 23:31 | -2.58888 | -44.23687 | 161 ft | 14 kts | 218° |
| 2026-05-03 23:31 | -2.58945 | -44.23732 | 161 ft | 16 kts | 219° |
| 2026-05-03 23:31 | -2.59065 | -44.23830 | 159 ft | 25 kts | 218° |
| 2026-05-03 23:32 | -2.59170 | -44.23914 | 159 ft | 14 kts | 218° |
| 2026-05-03 23:32 | -2.59219 | -44.23955 | 159 ft | 8 kts | 237° |
| 2026-05-03 23:32 | -2.59261 | -44.23993 | 159 ft | 6 kts | 119° |
| 2026-05-03 23:32 | -2.59255 | -44.23982 | 159 ft | 0 kts | 39° |
| 2026-05-03 23:33 | -2.59213 | -44.23948 | 159 ft | 32 kts | 38° |
| 2026-05-03 23:33 | -2.58885 | -44.23683 | 161 ft | 85 kts | 40° |
| 2026-05-03 23:34 | -2.58367 | -44.23260 | 319 ft | 101 kts | 39° |
| 2026-05-03 23:34 | -2.57790 | -44.22864 | 629 ft | 101 kts | 25° |
| 2026-05-03 23:34 | -2.57085 | -44.22696 | 946 ft | 106 kts | 358° |
| 2026-05-03 23:34 | -2.56376 | -44.22968 | 1170 ft | 119 kts | 323° |
| 2026-05-03 23:35 | -2.55739 | -44.23545 | 1375 ft | 129 kts | 304° |
| 2026-05-03 23:35 | -2.55338 | -44.24182 | 1571 ft | 132 kts | 302° |
| 2026-05-03 23:35 | -2.55046 | -44.24725 | 1840 ft | 125 kts | 296° |
| 2026-05-03 23:35 | -2.54591 | -44.25399 | 2307 ft | 114 kts | 316° |
| 2026-05-03 23:36 | -2.53902 | -44.25806 | 2636 ft | 114 kts | 335° |
| 2026-05-03 23:36 | -2.53249 | -44.26149 | 2917 ft | 116 kts | 335° |
| 2026-05-03 23:36 | -2.52822 | -44.26364 | 3100 ft | 118 kts | 337° |
| 2026-05-03 23:36 | -2.52082 | -44.26723 | 3423 ft | 118 kts | 337° |
| 2026-05-03 23:37 | -2.51281 | -44.27105 | 3511 ft | 139 kts | 336° |
| 2026-05-03 23:37 | -2.50360 | -44.27548 | 3512 ft | 155 kts | 336° |
| 2026-05-03 23:37 | -2.49587 | -44.27915 | 3512 ft | 161 kts | 337° |
| 2026-05-03 23:37 | -2.48550 | -44.28404 | 3511 ft | 166 kts | 337° |
| 2026-05-03 23:38 | -2.47544 | -44.28878 | 3507 ft | 170 kts | 337° |
| 2026-05-03 23:38 | -2.46478 | -44.29381 | 3513 ft | 170 kts | 337° |
| 2026-05-03 23:38 | -2.45480 | -44.29892 | 3512 ft | 171 kts | 327° |
| 2026-05-03 23:38 | -2.44711 | -44.30798 | 3509 ft | 174 kts | 298° |
| 2026-05-03 23:39 | -2.44442 | -44.31623 | 3507 ft | 175 kts | 279° |
| 2026-05-03 23:39 | -2.44539 | -44.32816 | 3512 ft | 176 kts | 252° |
| 2026-05-03 23:39 | -2.44941 | -44.33975 | 3510 ft | 176 kts | 250° |
| 2026-05-03 23:39 | -2.45329 | -44.35152 | 3510 ft | 177 kts | 251° |
| 2026-05-03 23:40 | -2.45714 | -44.36320 | 3507 ft | 176 kts | 251° |
| 2026-05-03 23:40 | -2.46097 | -44.37467 | 3509 ft | 177 kts | 251° |
| 2026-05-03 23:40 | -2.46487 | -44.38635 | 3507 ft | 177 kts | 251° |
| 2026-05-03 23:40 | -2.46853 | -44.39738 | 3512 ft | 176 kts | 251° |
| 2026-05-03 23:41 | -2.47241 | -44.40898 | 3509 ft | 176 kts | 251° |
| 2026-05-03 23:41 | -2.47629 | -44.42058 | 3506 ft | 176 kts | 251° |
| 2026-05-03 23:41 | -2.47956 | -44.43038 | 3508 ft | 176 kts | 251° |
| 2026-05-03 23:41 | -2.48141 | -44.43594 | 3507 ft | 176 kts | 251° |
| 2026-05-03 23:42 | -2.48494 | -44.44659 | 3510 ft | 176 kts | 251° |
| 2026-05-03 23:42 | -2.48882 | -44.45821 | 3506 ft | 176 kts | 251° |
| 2026-05-03 23:42 | -2.49270 | -44.46985 | 3505 ft | 176 kts | 251° |
| 2026-05-03 23:42 | -2.49658 | -44.48148 | 3506 ft | 177 kts | 251° |
| 2026-05-03 23:43 | -2.50047 | -44.49316 | 3507 ft | 177 kts | 251° |
| 2026-05-03 23:43 | -2.50437 | -44.50482 | 3507 ft | 176 kts | 251° |
| 2026-05-03 23:43 | -2.50823 | -44.51645 | 3510 ft | 176 kts | 251° |
| 2026-05-03 23:43 | -2.51213 | -44.52816 | 3506 ft | 177 kts | 251° |
| 2026-05-03 23:44 | -2.51506 | -44.53965 | 3340 ft | 163 kts | 267° |
| 2026-05-03 23:44 | -2.51345 | -44.55039 | 3119 ft | 152 kts | 290° |
| 2026-05-03 23:44 | -2.50836 | -44.55931 | 2946 ft | 144 kts | 312° |
| 2026-05-03 23:44 | -2.50094 | -44.56557 | 2801 ft | 138 kts | 333° |
| 2026-05-03 23:45 | -2.49222 | -44.56889 | 2706 ft | 134 kts | 352° |
| 2026-05-03 23:45 | -2.48282 | -44.56926 | 2637 ft | 138 kts | 7° |
| 2026-05-03 23:45 | -2.47313 | -44.56872 | 2569 ft | 141 kts | 4° |
| 2026-05-03 23:45 | -2.46329 | -44.56833 | 2500 ft | 141 kts | 5° |
| 2026-05-03 23:46 | -2.45342 | -44.56790 | 2430 ft | 142 kts | 5° |
| 2026-05-03 23:46 | -2.44350 | -44.56744 | 2358 ft | 143 kts | 5° |
| 2026-05-03 23:46 | -2.43365 | -44.56631 | 2280 ft | 142 kts | 21° |
| 2026-05-03 23:46 | -2.42573 | -44.56068 | 2206 ft | 141 kts | 51° |
| 2026-05-03 23:47 | -2.42152 | -44.55193 | 2132 ft | 141 kts | 74° |
| 2026-05-03 23:47 | -2.41875 | -44.54256 | 2061 ft | 141 kts | 72° |
| 2026-05-03 23:47 | -2.41576 | -44.53321 | 2005 ft | 139 kts | 72° |
| 2026-05-03 23:47 | -2.41286 | -44.52404 | 2004 ft | 137 kts | 72° |
| 2026-05-03 23:48 | -2.41002 | -44.51500 | 2001 ft | 136 kts | 72° |
| 2026-05-03 23:48 | -2.40723 | -44.50604 | 2000 ft | 135 kts | 72° |
| 2026-05-03 23:48 | -2.40443 | -44.49708 | 1960 ft | 138 kts | 72° |
| 2026-05-03 23:48 | -2.40153 | -44.48782 | 1799 ft | 144 kts | 72° |
| 2026-05-03 23:49 | -2.39854 | -44.47834 | 1628 ft | 139 kts | 72° |
| 2026-05-03 23:49 | -2.39572 | -44.46929 | 1436 ft | 135 kts | 72° |
| 2026-05-03 23:49 | -2.39295 | -44.46039 | 1253 ft | 133 kts | 72° |
| 2026-05-03 23:49 | -2.39019 | -44.45154 | 1075 ft | 133 kts | 72° |
| 2026-05-03 23:50 | -2.38745 | -44.44281 | 905 ft | 124 kts | 72° |
| 2026-05-03 23:50 | -2.38577 | -44.43750 | 794 ft | 115 kts | 72° |
| 2026-05-03 23:50 | -2.38277 | -44.42771 | 593 ft | 109 kts | 72° |
| 2026-05-03 23:50 | -2.38051 | -44.42051 | 448 ft | 108 kts | 72° |
| 2026-05-03 23:51 | -2.37825 | -44.41341 | 309 ft | 103 kts | 72° |
| 2026-05-03 23:51 | -2.37621 | -44.40682 | 173 ft | 93 kts | 74° |
| 2026-05-03 23:51 | -2.37455 | -44.40140 | 150 ft | 70 kts | 71° |
| 2026-05-03 23:51 | -2.37348 | -44.39803 | 153 ft | 31 kts | 73° |
| 2026-05-03 23:52 | -2.37326 | -44.39742 | 153 ft | 6 kts | 291° |
| 2026-05-03 23:52 | -2.37356 | -44.39830 | 153 ft | 16 kts | 252° |
| 2026-05-03 23:52 | -2.37408 | -44.39969 | 152 ft | 22 kts | 238° |
| 2026-05-03 23:52 | -2.37498 | -44.39996 | 151 ft | 9 kts | 162° |
| 2026-05-03 23:53 | -2.37526 | -44.39987 | 152 ft | 0 kts | 162° |